Seaguardian — 9HHP7 — position and weather

sailwx.info

Track history (hours):
 
Tides and Currents Weather Stations Pressure Air Temp Water Temp Dewpoint Dewpoint Depression Visibility Wind Speed Wind Dir Waves Ship Positions

Seaguardian

Last reported at 2018-Jan-02 08:24 UTC. Time now 2018-Jan-20 23:15 UTC.
Position N 01°17' E 103°22'.
Warning: this ship's position is 18 days out of date.

Length 225 m; draft 14.4 m.

Type: Cargo ship. MMSI: 215247000.

Date/timePositionNaut miles runAvg speedWind from/ knotsBaromVisibWave heightAir tempDewpointWater temp
2018-Jan-02 08:24N 01°17' E 103°22'512.1
2018-Jan-02 07:58N 01°14' E 103°27'511.7
2018-Jan-02 07:30N 01°12' E 103°32'510.8
2018-Jan-02 07:01N 01°11' E 103°37'510.2
2018-Jan-02 06:30N 01°10' E 103°42'4 8.4
2018-Jan-02 06:00N 01°09' E 103°46'4 8.6
2018-Jan-02 05:31N 01°11' E 103°50'10 9.2
2018-Jan-02 04:25N 01°16' E 103°59'1 0.7
2018-Jan-02 02:44N 01°17' E 103°58'0 0.0
2018-Jan-02 01:11N 01°17' E 103°58'0 0.0
2018-Jan-01 22:32N 01°17' E 103°58'0 0.3
2018-Jan-01 22:29N 01°17' E 103°58'0 0.0
2018-Jan-01 17:56N 01°17' E 103°58'0 0.0
2018-Jan-01 14:11N 01°17' E 103°58'0 0.0
2018-Jan-01 11:13N 01°17' E 103°58'0 0.4
2018-Jan-01 10:56N 01°17' E 103°58'1 2.6
2018-Jan-01 10:30N 01°16' E 103°58'4 7.7
2018-Jan-01 09:59N 01°16' E 104°02'  
Track history (hours):
 
Tides and Currents Weather Stations Pressure Air Temp Water Temp Dewpoint Dewpoint Depression Visibility Wind Speed Wind Dir Waves Ship Positions

Seaguardian

Last reported at 2018-Jan-02 08:24 UTC. Time now 2018-Jan-20 23:15 UTC.
Position N 01°17' E 103°22'.
Warning: this ship's position is 18 days out of date.

Length 225 m; draft 14.4 m.

Type: Cargo ship. MMSI: 215247000.

Date/timePositionNaut miles runAvg speedWind from/ knotsBaromVisibWave heightAir tempDewpointWater temp
2018-Jan-02 08:24N 01°17' E 103°22'512.1
2018-Jan-02 07:58N 01°14' E 103°27'511.7
2018-Jan-02 07:30N 01°12' E 103°32'510.8
2018-Jan-02 07:01N 01°11' E 103°37'510.2
2018-Jan-02 06:30N 01°10' E 103°42'4 8.4
2018-Jan-02 06:00N 01°09' E 103°46'4 8.6
2018-Jan-02 05:31N 01°11' E 103°50'10 9.2
2018-Jan-02 04:25N 01°16' E 103°59'1 0.7
2018-Jan-02 02:44N 01°17' E 103°58'0 0.0
2018-Jan-02 01:11N 01°17' E 103°58'0 0.0
2018-Jan-01 22:32N 01°17' E 103°58'0 0.3
2018-Jan-01 22:29N 01°17' E 103°58'0 0.0
2018-Jan-01 17:56N 01°17' E 103°58'0 0.0
2018-Jan-01 14:11N 01°17' E 103°58'0 0.0
2018-Jan-01 11:13N 01°17' E 103°58'0 0.4
2018-Jan-01 10:56N 01°17' E 103°58'1 2.6
2018-Jan-01 10:30N 01°16' E 103°58'4 7.7
2018-Jan-01 09:59N 01°16' E 104°02'  

Dump ship's entire track history